Time;durP1;ratioP1;P1;durP2;ratioP2;P2;SDS_P1;SDS_P2;PMS_P1;PMS_P2;Temp;Humidity;BMP_temperature;BMP_pressure;BME280_temperature;BME280_humidity;BME280_pressure;Samples;Min_cycle;Max_cycle;Signal;HPM_P1;HPM_P2
2023/01/02 00:00:57;;;;;;;16.52;12.03;;;;;;;6.64;84.50;101272.02;1741462;81;21200;-57
2023/01/02 00:04:03;;;;;;;14.73;10.85;;;;;;;6.65;84.53;101287.82;1712192;83;21209;-57
2023/01/02 00:07:10;;;;;;;17.32;11.18;;;;;;;6.65;84.53;101300.94;1741755;81;21192;-57
2023/01/02 00:10:16;;;;;;;15.08;11.03;;;;;;;6.64;84.50;101307.39;1713048;84;21213;-56
2023/01/02 00:13:24;;;;;;;18.32;11.28;;;;;;;6.63;84.46;101305.64;1723695;82;21196;-56
2023/01/02 00:16:31;;;;;;;19.35;13.08;;;;;;;6.62;84.46;101313.93;1713103;82;21232;-56
2023/01/02 00:19:36;;;;;;;19.23;10.50;;;;;;;6.61;84.45;101324.45;1741970;82;21278;-57
2023/01/02 00:22:41;;;;;;;20.17;12.23;;;;;;;6.60;84.43;101316.78;1713065;82;21579;-56
2023/01/02 00:25:50;;;;;;;21.65;13.15;;;;;;;6.60;84.41;101318.14;1741630;82;21240;-57
2023/01/02 00:28:56;;;;;;;16.25;11.80;;;;;;;6.59;84.43;101313.70;1713000;84;21280;-56
2023/01/02 00:32:03;;;;;;;16.45;11.03;;;;;;;6.60;84.48;101315.91;1741885;81;21208;-57
2023/01/02 00:35:08;;;;;;;15.15;10.63;;;;;;;6.59;84.49;101310.11;1713135;84;21212;-57
2023/01/02 00:38:13;;;;;;;15.13;9.75;;;;;;;6.58;84.50;101312.47;1741873;81;21299;-56
2023/01/02 00:41:20;;;;;;;16.35;9.45;;;;;;;6.55;84.51;101309.48;1713099;82;21212;-55
2023/01/02 00:44:25;;;;;;;15.55;10.50;;;;;;;6.56;84.53;101319.40;1741821;82;21763;-57
2023/01/02 00:47:31;;;;;;;17.67;10.85;;;;;;;6.55;84.55;101316.29;1713194;82;21362;-57
2023/01/02 00:50:38;;;;;;;15.13;10.38;;;;;;;6.56;84.55;101324.84;1741756;82;21350;-56
2023/01/02 00:53:44;;;;;;;16.52;10.78;;;;;;;6.56;84.53;101312.59;1712371;82;21248;-56
2023/01/02 00:56:50;;;;;;;13.35;9.80;;;;;;;6.56;84.51;101315.32;1739365;81;21208;-56
2023/01/02 00:59:56;;;;;;;18.40;11.48;;;;;;;6.55;84.49;101305.41;1713037;84;21205;-57
2023/01/02 01:03:04;;;;;;;15.10;10.53;;;;;;;6.53;84.46;101307.42;1739428;81;21227;-56
2023/01/02 01:06:20;;;;;;;16.50;10.68;;;;;;;6.52;84.42;101317.91;1713040;82;21210;-56
2023/01/02 01:09:26;;;;;;;16.52;10.43;;;;;;;6.51;84.46;101317.55;1739377;82;21216;-57
2023/01/02 01:12:33;;;;;;;16.37;11.05;;;;;;;6.51;84.47;101305.31;1713058;82;21216;-57
2023/01/02 01:15:41;;;;;;;21.93;12.10;;;;;;;6.49;84.48;101303.20;1739435;81;21188;-56
2023/01/02 01:18:49;;;;;;;17.52;12.20;;;;;;;6.49;84.51;101301.84;1713204;84;21322;-57
2023/01/02 01:21:54;;;;;;;15.60;10.10;;;;;;;6.48;84.52;101305.57;1739163;81;21266;-56
2023/01/02 01:25:00;;;;;;;17.12;10.00;;;;;;;6.48;84.54;101296.53;1713118;84;21212;-56
2023/01/02 01:28:07;;;;;;;16.62;11.03;;;;;;;6.45;84.55;101297.67;1739323;81;21220;-56
2023/01/02 01:31:17;;;;;;;15.10;10.18;;;;;;;6.44;84.55;101305.44;1713038;82;21272;-56
2023/01/02 01:34:22;;;;;;;16.17;10.65;;;;;;;6.42;84.52;101300.64;1739489;82;21251;-57
2023/01/02 01:37:29;;;;;;;17.48;11.00;;;;;;;6.41;84.48;101300.26;1713187;82;21234;-56
2023/01/02 01:40:37;;;;;;;19.15;11.83;;;;;;;6.38;84.35;101295.08;1739379;82;21716;-56
2023/01/02 01:44:02;;;;;;;18.27;13.05;;;;;;;6.32;84.17;101290.16;1713125;84;21217;-57
2023/01/02 01:47:08;;;;;;;18.55;12.88;;;;;;;6.29;84.11;101290.89;1739332;81;21708;-57
2023/01/02 01:50:38;;;;;;;18.98;12.65;;;;;;;6.26;84.11;101282.99;1713169;84;21236;-57
2023/01/02 01:53:45;;;;;;;17.45;11.97;;;;;;;6.23;84.17;101284.13;1737776;82;21188;-56
2023/01/02 01:57:00;;;;;;;21.48;12.23;;;;;;;6.20;84.16;101282.98;1674601;84;21271;-56
2023/01/02 02:00:04;;;;;;;18.52;11.95;;;;;;;6.18;84.20;101283.63;1711038;84;21292;-56
2023/01/02 02:03:17;;;;;;;18.62;11.38;;;;;;;6.18;84.25;101275.95;1711177;82;21315;-57
2023/01/02 02:06:25;;;;;;;14.45;10.55;;;;;;;6.17;84.28;101269.65;1710942;84;21524;-56
2023/01/02 02:09:45;;;;;;;15.48;10.88;;;;;;;6.19;84.31;101266.80;1711829;84;21721;-56
2023/01/02 02:12:51;;;;;;;15.93;11.10;;;;;;;6.19;84.32;101277.67;1710000;84;21234;-55
2023/01/02 02:16:26;;;;;;;16.25;10.15;;;;;;;6.17;84.31;101266.93;1708419;84;21261;-55
2023/01/02 02:20:07;;;;;;;16.07;10.30;;;;;;;6.15;84.33;101266.70;1708575;84;21267;-57
2023/01/02 02:23:43;;;;;;;16.73;10.28;;;;;;;6.12;84.30;101266.44;1708526;84;21258;-56
2023/01/02 02:27:10;;;;;;;14.40;9.95;;;;;;;6.11;84.35;101264.72;1708548;84;21240;-57
2023/01/02 02:30:28;;;;;;;16.57;10.68;;;;;;;6.08;84.37;101260.90;1708445;84;21306;-57
2023/01/02 02:34:05;;;;;;;15.38;10.58;;;;;;;6.05;84.38;101259.80;1708552;84;21269;-59
2023/01/02 02:37:21;;;;;;;18.70;11.40;;;;;;;6.04;84.41;101262.16;1708379;84;21234;-56
2023/01/02 02:40:40;;;;;;;16.55;9.93;;;;;;;6.03;84.40;101274.00;1674185;85;21231;-57
2023/01/02 02:44:01;;;;;;;;;;;;;;;5.99;84.37;101269.81;1713401;83;21252;-55
2023/01/02 02:47:21;;;;;;;18.27;9.80;;;;;;;5.97;84.35;101274.50;1710702;82;20219;-56
2023/01/02 02:50:50;;;;;;;20.72;10.82;;;;;;;5.91;84.34;101278.56;1710859;84;21224;-56
2023/01/02 02:54:07;;;;;;;17.87;10.80;;;;;;;5.88;84.31;101278.82;1710722;84;21256;-56
2023/01/02 02:57:14;;;;;;;24.32;11.68;;;;;;;5.84;84.28;101285.50;1733332;81;21236;-57
2023/01/02 03:00:24;;;;;;;14.43;9.30;;;;;;;5.81;84.26;101287.08;1708537;84;21200;-57
2023/01/02 03:03:31;;;;;;;18.23;10.78;;;;;;;5.78;84.23;101295.97;1734566;82;21713;-58
2023/01/02 03:06:51;;;;;;;18.25;10.63;;;;;;;5.75;84.20;101298.45;1708497;82;21236;-57
2023/01/02 03:10:31;;;;;;;13.98;9.53;;;;;;;5.72;84.16;101303.25;1734550;82;21374;-57
2023/01/02 03:14:07;;;;;;;15.30;10.30;;;;;;;5.66;84.11;101305.11;1708569;84;21391;-56
2023/01/02 03:17:17;;;;;;;17.57;10.75;;;;;;;5.60;84.01;101301.50;1734511;81;21244;-56
2023/01/02 03:20:24;;;;;;;17.77;10.58;;;;;;;5.53;84.00;101307.06;1708507;84;21603;-56
2023/01/02 03:23:30;;;;;;;15.75;10.03;;;;;;;5.48;83.98;101316.06;1734607;82;21172;-56
2023/01/02 03:26:39;;;;;;;13.35;8.88;;;;;;;5.44;83.99;101315.94;1708383;82;21284;-55
2023/01/02 03:29:56;;;;;;;13.68;9.03;;;;;;;5.41;84.01;101310.72;1734520;81;21188;-57
2023/01/02 03:33:29;;;;;;;11.88;8.75;;;;;;;5.37;84.01;101301.98;1708341;82;21299;-56
2023/01/02 03:36:35;;;;;;;15.00;9.13;;;;;;;5.35;84.02;101308.49;1734631;81;21324;-55
2023/01/02 03:39:42;;;;;;;15.70;9.08;;;;;;;5.34;84.06;101308.13;1708470;84;21588;-56
2023/01/02 03:43:02;;;;;;;13.53;9.55;;;;;;;5.31;84.09;101302.43;1734495;81;21192;-57
2023/01/02 03:46:37;;;;;;;14.58;10.03;;;;;;;5.32;84.12;101299.23;1734608;81;21192;-56
2023/01/02 03:49:47;;;;;;;13.18;9.10;;;;;;;5.32;84.15;101300.59;1734529;82;21212;-57
2023/01/02 03:52:52;;;;;;;14.93;9.90;;;;;;;5.31;84.23;101305.66;1734641;81;21244;-58
2023/01/02 03:56:12;;;;;;;13.00;9.58;;;;;;;5.34;84.31;101313.08;1734020;81;21746;-57
2023/01/02 03:59:28;;;;;;;12.70;9.30;;;;;;;5.36;84.31;101327.89;1736964;82;21192;-57
2023/01/02 04:03:02;;;;;;;14.18;9.95;;;;;;;5.37;84.32;101328.25;1737413;81;21788;-57
2023/01/02 04:06:15;;;;;;;15.75;9.25;;;;;;;5.37;84.33;101332.33;1737180;81;21462;-57
2023/01/02 04:09:27;;;;;;;22.50;14.30;;;;;;;5.36;84.34;101330.09;1736861;81;21195;-58
2023/01/02 04:12:33;;;;;;;18.02;12.00;;;;;;;5.38;84.38;101336.76;1736764;81;21271;-56
2023/01/02 04:15:40;;;;;;;14.45;9.60;;;;;;;5.40;84.38;101338.39;1736706;82;21776;-56
2023/01/02 04:18:53;;;;;;;16.27;9.80;;;;;;;5.41;84.33;101340.59;1736984;81;21185;-56
2023/01/02 04:22:00;;;;;;;12.50;8.83;;;;;;;5.43;84.32;101339.50;1737018;81;21223;-57
2023/01/02 04:25:18;;;;;;;15.30;9.95;;;;;;;5.43;84.33;101341.34;1737018;82;21729;-56
2023/01/02 04:28:33;;;;;;;13.13;9.05;;;;;;;5.44;84.34;101343.09;1719357;82;21236;-58
2023/01/02 04:32:12;;;;;;;14.60;9.90;;;;;;;5.42;84.39;101352.69;1736982;81;21267;-58
2023/01/02 04:35:24;;;;;;;14.47;9.55;;;;;;;5.44;84.39;101360.74;1736844;82;21176;-58
2023/01/02 04:38:30;;;;;;;12.90;9.78;;;;;;;5.43;84.41;101369.37;1736098;82;21197;-60
2023/01/02 04:41:37;;;;;;;15.35;10.45;;;;;;;5.41;84.44;101364.55;1735813;81;21192;-58
2023/01/02 04:44:44;;;;;;;15.08;10.20;;;;;;;5.41;84.43;101369.09;1736538;82;21220;-59
2023/01/02 04:47:51;;;;;;;18.45;9.98;;;;;;;5.41;84.46;101374.05;1735631;82;21735;-59
2023/01/02 04:50:57;;;;;;;14.40;10.32;;;;;;;5.41;84.46;101371.81;1735704;81;21204;-60
2023/01/02 04:54:03;;;;;;;20.85;11.43;;;;;;;5.41;84.50;101386.27;1736499;82;21184;-58
2023/01/02 04:57:09;;;;;;;15.80;11.20;;;;;;;5.42;84.52;101379.83;1737241;81;21224;-59
2023/01/02 05:00:15;;;;;;;20.85;11.15;;;;;;;5.44;84.58;101379.75;1736395;82;21216;-59
2023/01/02 05:03:20;;;;;;;18.15;10.80;;;;;;;5.45;84.61;101390.97;1736518;82;21708;-59
2023/01/02 05:06:26;;;;;;;16.97;10.18;;;;;;;5.46;84.55;101395.41;1743498;81;21175;-59
2023/01/02 05:09:31;;;;;;;14.10;10.32;;;;;;;5.42;84.45;101383.91;1741415;81;21218;-58
2023/01/02 05:12:42;;;;;;;14.60;10.20;;;;;;;5.42;84.30;101398.00;1743727;81;21207;-58
2023/01/02 05:15:47;;;;;;;17.27;11.63;;;;;;;5.40;84.27;101396.77;1741428;81;21196;-58
2023/01/02 05:18:53;;;;;;;16.93;11.78;;;;;;;5.39;84.18;101401.80;1743787;82;21697;-59
2023/01/02 05:25:25;;;;;;;16.37;11.60;;;;;;;5.44;84.37;101401.47;1713107;84;21213;-60
2023/01/02 05:28:31;;;;;;;16.27;11.93;;;;;;;5.48;84.50;101404.31;1741712;81;21275;-58
2023/01/02 05:31:37;;;;;;;28.95;19.67;;;;;;;5.50;84.56;101392.33;1744139;81;21264;-58
2023/01/02 05:34:44;;;;;;;48.17;24.27;;;;;;;5.52;84.62;101407.14;1741891;82;21200;-60
2023/01/02 05:37:50;;;;;;;23.92;13.58;;;;;;;5.56;84.66;101411.38;1744133;81;21211;-59
2023/01/02 05:40:56;;;;;;;18.77;10.80;;;;;;;5.58;84.67;101417.56;1741757;81;21239;-58
2023/01/02 05:44:04;;;;;;;17.82;11.57;;;;;;;5.60;84.69;101416.92;1713127;84;21257;-58
2023/01/02 05:47:04;;;;;;;27.62;16.07;;;;;;;5.61;84.72;101429.02;1744123;81;21199;-59
2023/01/02 05:50:14;;;;;;;30.17;18.87;;;;;;;5.64;84.75;101427.94;1724166;82;21188;-59
2023/01/02 05:53:19;;;;;;;69.42;34.92;;;;;;;5.66;84.78;101439.05;1698556;82;21335;-59
2023/01/02 05:56:30;;;;;;;52.43;27.15;;;;;;;5.69;84.83;101448.83;1740192;81;21397;-60
2023/01/02 05:59:35;;;;;;;33.85;20.15;;;;;;;5.72;84.88;101445.87;1738998;80;21215;-59
2023/01/02 06:02:41;;;;;;;34.13;21.60;;;;;;;5.75;84.91;101453.78;1738529;81;21569;-58
2023/01/02 06:05:51;;;;;;;36.05;24.32;;;;;;;5.80;84.97;101455.66;1710416;84;21253;-60
2023/01/02 06:09:07;;;;;;;33.60;23.50;;;;;;;5.83;84.98;101452.24;1742050;82;21191;-60
2023/01/02 06:12:13;;;;;;;44.35;29.45;;;;;;;5.88;84.96;101463.59;1739342;82;21848;-58
2023/01/02 06:15:20;;;;;;;23.02;15.55;;;;;;;5.93;84.97;101461.39;1693105;84;21271;-58
2023/01/02 06:18:28;;;;;;;20.25;14.03;;;;;;;5.97;84.98;101463.38;1743624;81;21167;-57
2023/01/02 06:21:34;;;;;;;21.12;14.47;;;;;;;6.02;85.00;101472.88;1737757;82;21196;-59
2023/01/02 06:24:38;;;;;;;23.35;16.20;;;;;;;6.09;85.01;101481.42;1674470;83;21750;-60
2023/01/02 06:27:44;;;;;;;20.85;14.07;;;;;;;6.15;84.99;101478.73;1737528;82;21243;-58
2023/01/02 06:30:51;;;;;;;19.62;13.18;;;;;;;6.19;84.96;101485.16;1740970;82;21654;-58
2023/01/02 06:34:02;;;;;;;34.43;19.17;;;;;;;6.27;84.94;101489.50;1743235;82;21200;-60
2023/01/02 06:37:07;;;;;;;20.43;14.20;;;;;;;6.34;84.89;101502.13;1727253;81;21226;-59
2023/01/02 06:40:14;;;;;;;19.27;13.28;;;;;;;6.40;84.86;101512.02;1730086;82;21823;-60
2023/01/02 06:43:20;;;;;;;20.82;12.37;;;;;;;6.47;84.84;101508.33;1733189;82;21226;-58
2023/01/02 06:46:28;;;;;;;17.67;11.85;;;;;;;6.54;84.83;101513.63;1730314;82;21223;-59
2023/01/02 06:49:37;;;;;;;17.45;13.20;;;;;;;6.61;84.87;101517.09;1737615;82;21195;-59
2023/01/02 06:52:44;;;;;;;18.82;11.85;;;;;;;6.70;84.88;101527.74;1710352;83;21671;-58
2023/01/02 06:56:00;;;;;;;18.55;10.75;;;;;;;6.78;84.91;101518.47;1741236;82;21759;-58
2023/01/02 06:59:09;;;;;;;15.18;10.30;;;;;;;6.86;84.90;101521.44;1740558;82;21761;-60
2023/01/02 07:02:19;;;;;;;15.45;10.68;;;;;;;6.94;84.91;101523.05;1741867;82;21180;-61
2023/01/02 07:05:26;;;;;;;15.00;11.73;;;;;;;7.00;84.89;101522.05;1742370;82;21200;-59
2023/01/02 07:08:32;;;;;;;16.60;11.53;;;;;;;7.07;84.87;101530.06;1739409;82;21192;-60
2023/01/02 07:11:40;;;;;;;16.62;11.33;;;;;;;7.11;84.83;101539.73;1710808;84;21314;-59
2023/01/02 07:14:47;;;;;;;14.78;10.43;;;;;;;7.16;84.81;101535.27;1742495;82;21239;-64
2023/01/02 07:17:53;;;;;;;17.15;11.22;;;;;;;7.21;84.77;101539.36;1739862;82;21668;-60
2023/01/02 07:21:02;;;;;;;49.93;26.60;;;;;;;7.25;84.73;101542.19;1710685;84;21268;-59
2023/01/02 07:24:07;;;;;;;23.47;15.68;;;;;;;7.29;84.71;101549.09;1743781;81;21363;-59
2023/01/02 07:27:13;;;;;;;19.73;13.05;;;;;;;7.34;84.68;101546.86;1711059;82;21186;-62
2023/01/02 07:30:19;;;;;;;14.58;10.95;;;;;;;7.39;84.65;101549.20;1742745;82;21207;-60
2023/01/02 07:33:26;;;;;;;15.48;11.08;;;;;;;7.43;84.65;101557.02;1723264;82;21334;-60
2023/01/02 07:36:31;;;;;;;15.75;11.40;;;;;;;7.48;84.64;101554.75;1684163;84;21260;-61
2023/01/02 07:39:38;;;;;;;16.27;10.35;;;;;;;7.52;84.60;101556.73;1743323;80;21212;-59
2023/01/02 07:42:47;;;;;;;15.53;10.08;;;;;;;7.54;84.60;101566.53;1713745;82;21319;-59
2023/01/02 07:45:52;;;;;;;14.98;10.30;;;;;;;7.58;84.63;101571.20;1746097;82;21196;-60
2023/01/02 07:49:00;;;;;;;19.07;11.75;;;;;;;7.61;84.62;101572.34;1746328;82;21236;-60
2023/01/02 07:52:08;;;;;;;14.50;9.95;;;;;;;7.67;84.69;101578.63;1743771;82;21198;-58
2023/01/02 07:55:14;;;;;;;19.45;11.78;;;;;;;7.73;84.73;101582.69;1738919;82;21218;-59
2023/01/02 07:58:20;;;;;;;29.55;16.60;;;;;;;7.79;84.75;101577.59;1693437;83;21237;-59
2023/01/02 08:01:27;;;;;;;25.30;16.25;;;;;;;7.87;84.78;101581.90;1713392;82;21778;-60
2023/01/02 08:04:35;;;;;;;18.45;12.18;;;;;;;7.93;84.75;101580.53;1719921;82;21655;-60
2023/01/02 08:07:40;;;;;;;16.27;11.68;;;;;;;7.99;84.72;101589.03;1704510;82;21232;-59
2023/01/02 08:10:47;;;;;;;17.82;12.07;;;;;;;8.06;84.69;101592.10;1740662;82;21538;-59
2023/01/02 08:13:52;;;;;;;18.82;12.73;;;;;;;8.10;84.65;101597.69;1738065;82;21573;-59
2023/01/02 08:16:58;;;;;;;17.15;10.85;;;;;;;8.16;84.64;101602.61;1708618;84;22150;-58
2023/01/02 08:20:04;;;;;;;23.67;16.05;;;;;;;8.19;84.65;101598.25;1741311;80;21242;-58
2023/01/02 08:23:10;;;;;;;17.27;13.13;;;;;;;8.25;84.67;101602.72;1738450;81;21212;-57
2023/01/02 08:26:16;;;;;;;17.42;13.13;;;;;;;8.33;84.64;101603.42;1682953;84;21291;-59
2023/01/02 08:29:24;;;;;;;17.67;11.50;;;;;;;8.39;84.58;101609.70;1711781;83;21202;-58
2023/01/02 08:32:31;;;;;;;15.72;12.93;;;;;;;8.45;84.54;101610.57;1687452;84;21251;-58
2023/01/02 08:35:36;;;;;;;16.80;12.10;;;;;;;8.51;84.49;101611.40;1726634;81;21192;-59
2023/01/02 08:38:41;;;;;;;20.88;13.50;;;;;;;8.56;84.43;101620.05;1740635;82;21885;-59
2023/01/02 08:41:47;;;;;;;17.45;12.75;;;;;;;8.60;84.43;101620.14;1711007;84;21232;-60
2023/01/02 08:44:57;;;;;;;14.35;11.35;;;;;;;8.65;84.35;101618.76;1741908;82;21239;-60
2023/01/02 08:48:07;;;;;;;14.47;10.32;;;;;;;8.72;84.33;101613.11;1725099;82;21199;-59
2023/01/02 08:51:15;;;;;;;15.70;11.73;;;;;;;8.77;84.25;101614.07;1739817;81;21388;-59
2023/01/02 08:54:20;;;;;;;29.18;16.93;;;;;;;8.75;84.14;101608.75;1711700;84;21381;-58
2023/01/02 08:57:27;;;;;;;21.25;13.75;;;;;;;8.76;84.22;101616.45;1740013;81;21271;-58
2023/01/02 09:00:33;;;;;;;23.50;14.65;;;;;;;8.81;84.30;101610.97;1726846;82;21193;-60
2023/01/02 09:03:42;;;;;;;21.20;13.78;;;;;;;8.86;84.40;101603.20;1734099;82;21364;-58
2023/01/02 09:06:51;;;;;;;18.30;10.98;;;;;;;8.93;84.50;101592.61;1735275;82;21777;-58
2023/01/02 09:09:58;;;;;;;15.55;11.20;;;;;;;9.00;84.54;101598.78;1712094;81;21767;-59
2023/01/02 09:13:06;;;;;;;17.60;10.50;;;;;;;9.08;84.60;101598.09;1708816;84;21212;-59
2023/01/02 09:16:12;;;;;;;18.17;12.33;;;;;;;9.15;84.62;101604.72;1710246;83;21238;-59
2023/01/02 09:19:19;;;;;;;18.87;10.18;;;;;;;9.24;84.60;101605.78;1725506;82;21250;-59
2023/01/02 09:22:25;;;;;;;12.63;9.45;;;;;;;9.33;84.59;101604.45;1692509;84;21240;-58
2023/01/02 09:25:33;;;;;;;14.80;11.33;;;;;;;9.41;84.62;101597.80;1692379;84;21221;-58
2023/01/02 09:28:42;;;;;;;18.02;12.50;;;;;;;9.53;84.62;101598.03;1733323;81;21197;-58
2023/01/02 09:31:48;;;;;;;17.65;12.55;;;;;;;9.66;84.65;101600.51;1727982;82;21275;-58
2023/01/02 09:34:54;;;;;;;21.85;13.45;;;;;;;9.76;84.59;101600.03;1737604;82;21200;-58
2023/01/02 09:38:01;;;;;;;15.08;11.18;;;;;;;9.86;84.60;101592.20;1737610;82;21224;-59
2023/01/02 09:41:09;;;;;;;14.55;10.15;;;;;;;9.97;84.53;101593.44;1735712;81;21193;-58
2023/01/02 09:44:31;;;;;;;18.00;11.85;;;;;;;10.05;84.53;101592.22;1737818;82;21798;-59
2023/01/02 09:47:38;;;;;;;18.10;11.08;;;;;;;10.15;84.48;101596.36;1746110;82;21773;-59
2023/01/02 09:50:45;;;;;;;15.32;10.32;;;;;;;10.24;84.40;101594.99;1734898;80;21365;-59
2023/01/02 09:53:52;;;;;;;25.23;13.90;;;;;;;10.30;84.37;101594.45;1716925;82;21238;-59
2023/01/02 09:57:09;;;;;;;21.65;14.47;;;;;;;10.35;84.34;101593.48;1740400;80;21208;-58
2023/01/02 10:00:27;;;;;;;17.00;10.85;;;;;;;10.41;84.36;101594.30;1720541;83;21809;-59
2023/01/02 10:03:38;;;;;;;20.62;14.15;;;;;;;10.47;84.35;101599.18;1741115;81;21251;-60
2023/01/02 10:06:48;;;;;;;24.80;15.40;;;;;;;10.50;84.26;101583.83;1707590;82;21733;-59
2023/01/02 10:10:01;;;;;;;17.73;12.40;;;;;;;10.52;84.21;101581.81;1739491;82;21189;-58
2023/01/02 10:13:35;;;;;;;20.60;13.55;;;;;;;10.55;84.25;101573.30;1740197;81;22037;-60
2023/01/02 10:16:45;;;;;;;16.02;11.20;;;;;;;10.60;84.26;101581.08;1740465;81;22105;-60
2023/01/02 10:20:02;;;;;;;18.90;11.48;;;;;;;10.69;84.35;101577.97;1734281;81;21177;-60
2023/01/02 10:23:19;;;;;;;14.75;10.08;;;;;;;10.77;84.42;101577.57;1707737;83;21228;-59
2023/01/02 10:26:27;;;;;;;16.97;10.28;;;;;;;10.88;84.42;101584.77;1731189;80;21236;-59
2023/01/02 10:29:39;;;;;;;14.33;10.23;;;;;;;10.96;84.42;101588.48;1741941;81;21201;-59
2023/01/02 10:32:45;;;;;;;12.05;9.25;;;;;;;11.01;84.32;101579.31;1737044;82;21232;-59
2023/01/02 10:36:06;;;;;;;22.65;16.57;;;;;;;11.07;84.29;101577.33;1738234;82;21236;-59
2023/01/02 10:39:34;;;;;;;18.77;10.28;;;;;;;11.12;84.29;101582.36;1735342;81;21224;-58
2023/01/02 10:42:44;;;;;;;14.50;10.30;;;;;;;11.19;84.26;101576.15;1734213;82;21736;-59
2023/01/02 10:45:53;;;;;;;14.78;9.45;;;;;;;11.20;84.14;101579.23;1734732;82;21200;-61
2023/01/02 10:48:59;;;;;;;23.57;13.05;;;;;;;11.23;84.12;101578.05;1708596;84;21220;-59
2023/01/02 10:52:13;;;;;;;13.70;10.08;;;;;;;11.25;84.12;101581.02;1719701;82;21184;-59
2023/01/02 10:55:18;;;;;;;19.67;11.50;;;;;;;11.28;84.09;101577.09;1731070;82;21553;-59
2023/01/02 10:58:30;;;;;;;45.85;18.50;;;;;;;11.30;84.04;101576.45;1740605;82;21741;-58
2023/01/02 11:01:37;;;;;;;31.42;15.18;;;;;;;11.35;84.12;101581.81;1741524;80;21744;-59
2023/01/02 11:04:44;;;;;;;18.37;9.55;;;;;;;11.45;84.10;101580.39;1737035;82;21224;-59
2023/01/02 11:07:50;;;;;;;13.85;8.70;;;;;;;11.52;84.10;101576.05;1665037;84;21801;-59
2023/01/02 11:11:00;;;;;;;14.60;8.28;;;;;;;11.58;84.07;101573.55;1719025;81;21200;-61
2023/01/02 11:14:15;;;;;;;12.58;9.03;;;;;;;11.62;83.96;101577.70;1718648;82;21240;-60
2023/01/02 11:17:29;;;;;;;16.73;9.95;;;;;;;11.67;83.96;101583.63;1736537;81;21816;-60
2023/01/02 11:20:37;;;;;;;16.02;9.78;;;;;;;11.73;83.95;101575.31;1731627;82;21204;-60
2023/01/02 11:23:49;;;;;;;14.25;9.75;;;;;;;11.78;83.92;101570.23;1733498;82;21212;-60
2023/01/02 11:26:57;;;;;;;22.10;13.45;;;;;;;11.84;83.90;101568.23;1733910;81;21208;-59
2023/01/02 11:30:03;;;;;;;29.25;13.03;;;;;;;11.91;83.90;101563.83;1733311;82;21737;-60
2023/01/02 11:33:23;;;;;;;18.87;11.22;;;;;;;11.97;83.87;101559.95;1730682;81;21271;-60
2023/01/02 11:36:29;;;;;;;15.08;9.83;;;;;;;12.03;83.82;101562.06;1694254;84;21599;-61
2023/01/02 11:39:42;;;;;;;34.35;18.55;;;;;;;12.10;83.80;101566.95;1733528;81;21192;-62
2023/01/02 11:46:19;;;;;;;20.60;11.30;;;;;;;12.16;83.75;101554.84;1705282;82;21223;-59
2023/01/02 11:49:31;;;;;;;19.48;13.43;;;;;;;12.20;83.71;101553.98;1710055;82;21239;-61
2023/01/02 11:52:50;;;;;;;15.53;9.98;;;;;;;12.25;83.66;101566.73;1695790;84;21375;-59
2023/01/02 11:56:09;;;;;;;15.85;8.93;;;;;;;12.29;83.64;101569.54;1679355;84;21257;-59
2023/01/02 11:59:25;;;;;;;14.05;8.58;;;;;;;12.31;83.55;101577.08;1695439;84;21611;-59
2023/01/02 12:02:36;;;;;;;14.03;8.98;;;;;;;12.31;83.46;101580.70;1697058;82;21248;-59
2023/01/02 12:06:27;;;;;;;14.68;9.38;;;;;;;12.31;83.38;101580.70;1732150;81;21219;-60
2023/01/02 12:10:16;;;;;;;16.95;11.28;;;;;;;12.31;83.32;101583.45;1701953;82;21197;-60
2023/01/02 12:13:48;;;;;;;12.47;9.03;;;;;;;12.36;83.32;101586.59;1727953;83;21718;-60
2023/01/02 12:17:06;;;;;;;13.60;9.18;;;;;;;12.36;83.13;101593.45;1661904;85;21239;-60
2023/01/02 12:20:31;;;;;;;11.75;8.48;;;;;;;12.34;83.09;101595.48;1680620;84;21220;-60
2023/01/02 12:24:09;;;;;;;11.97;8.40;;;;;;;12.34;83.14;101592.73;1704550;82;21209;-59
2023/01/02 12:27:40;;;;;;;10.93;8.53;;;;;;;12.37;83.13;101597.91;1731998;81;21203;-58
2023/01/02 12:30:56;;;;;;;14.25;8.68;;;;;;;12.41;83.14;101597.97;1692964;83;21182;-59
2023/01/02 12:34:25;;;;;;;13.08;9.23;;;;;;;12.44;83.05;101601.77;1710315;82;21209;-58
2023/01/02 12:37:43;;;;;;;15.95;10.18;;;;;;;12.44;83.00;101596.28;1714888;82;21229;-58
2023/01/02 12:41:26;;;;;;;12.63;9.43;;;;;;;12.46;83.00;101603.86;1715749;83;21733;-58
2023/01/02 12:44:42;;;;;;;14.78;9.30;;;;;;;12.48;83.05;101610.03;1720300;81;21209;-56
2023/01/02 12:48:07;;;;;;;17.55;10.35;;;;;;;12.50;82.96;101603.88;1730558;83;21176;-58
2023/01/02 12:51:25;;;;;;;16.00;10.00;;;;;;;12.50;82.83;101607.13;1728811;81;21236;-57
2023/01/02 12:55:02;;;;;;;20.35;14.78;;;;;;;12.51;82.84;101607.50;1725344;83;21862;-60
2023/01/02 12:58:21;;;;;;;25.25;17.92;;;;;;;12.50;82.85;101610.74;1682153;82;22002;-60
2023/01/02 13:01:34;;;;;;;23.30;14.53;;;;;;;12.50;82.84;101609.37;1733484;81;21288;-60
2023/01/02 13:04:56;;;;;;;14.80;10.70;;;;;;;12.51;82.82;101615.20;1699992;82;21769;-59
2023/01/02 13:08:15;;;;;;;17.62;12.47;;;;;;;12.52;82.78;101616.95;1732117;81;21748;-60
2023/01/02 13:11:24;;;;;;;20.27;14.43;;;;;;;12.52;82.78;101621.07;1712604;82;21284;-61
2023/01/02 13:14:35;;;;;;;14.85;11.33;;;;;;;12.51;82.72;101616.58;1713723;83;21248;-61
2023/01/02 13:18:07;;;;;;;16.00;11.57;;;;;;;12.48;82.58;101618.27;1711717;82;21232;-60
2023/01/02 13:21:29;;;;;;;14.63;10.53;;;;;;;12.43;82.45;101619.25;1739990;81;22085;-59
2023/01/02 13:24:36;;;;;;;13.50;10.82;;;;;;;12.37;82.43;101628.12;1706682;82;21730;-59
2023/01/02 13:27:43;;;;;;;18.20;12.07;;;;;;;12.31;82.50;101626.02;1733942;81;21253;-59
2023/01/02 13:30:55;;;;;;;17.25;10.95;;;;;;;12.25;82.51;101628.52;1691961;83;21265;-59
2023/01/02 13:34:01;;;;;;;13.50;11.03;;;;;;;12.16;82.46;101633.08;1697841;83;21545;-57
2023/01/02 13:37:21;;;;;;;19.67;13.83;;;;;;;12.07;82.40;101633.98;1694479;84;21280;-58
2023/01/02 13:40:39;;;;;;;22.60;14.40;;;;;;;11.97;82.30;101633.21;1707466;83;21634;-58
2023/01/02 13:43:45;;;;;;;24.00;12.80;;;;;;;11.85;82.28;101626.19;1747895;80;21624;-58
2023/01/02 13:46:51;;;;;;;30.30;19.62;;;;;;;11.71;82.07;101621.23;1757977;81;21677;-58
2023/01/02 13:50:05;;;;;;;39.30;25.37;;;;;;;11.56;81.78;101624.11;1711040;82;21187;-58
2023/01/02 13:53:22;;;;;;;38.38;25.35;;;;;;;11.39;81.53;101629.00;1709957;82;21212;-59
2023/01/02 13:56:32;;;;;;;37.25;24.87;;;;;;;11.19;81.27;101636.45;1732901;81;21356;-58
2023/01/02 13:59:39;;;;;;;44.77;26.35;;;;;;;10.99;81.10;101633.38;1695383;82;21246;-58
2023/01/02 14:02:46;;;;;;;41.88;26.10;;;;;;;10.82;80.97;101630.53;1737837;81;21275;-58
2023/01/02 14:06:08;;;;;;;44.55;25.92;;;;;;;10.65;80.88;101624.44;1738959;82;21183;-59
2023/01/02 14:09:29;;;;;;;55.70;30.80;;;;;;;10.48;80.77;101622.80;1720964;81;21208;-58
2023/01/02 14:12:35;;;;;;;54.58;30.52;;;;;;;10.31;80.69;101632.23;1699003;83;21793;-57
2023/01/02 14:15:46;;;;;;;65.35;35.58;;;;;;;10.18;80.85;101627.58;1705035;82;21272;-56
2023/01/02 14:18:52;;;;;;;65.00;35.05;;;;;;;10.08;81.06;101625.32;1713308;83;21558;-60
2023/01/02 14:22:14;;;;;;;62.58;34.88;;;;;;;9.97;81.05;101618.05;1686344;82;21599;-59
2023/01/02 14:25:20;;;;;;;65.55;34.85;;;;;;;9.84;80.90;101616.11;1724110;81;21267;-60
2023/01/02 14:28:35;;;;;;;65.05;36.93;;;;;;;9.68;80.82;101603.98;1741760;82;21197;-60
2023/01/02 14:31:43;;;;;;;68.52;36.68;;;;;;;9.52;80.63;101605.88;1742328;81;21548;-61
2023/01/02 14:34:54;;;;;;;81.05;53.50;;;;;;;9.39;80.62;101602.52;1725435;82;21617;-59
2023/01/02 14:38:02;;;;;;;108.35;71.67;;;;;;;9.31;80.75;101609.17;1708848;81;21602;-59
2023/01/02 14:44:36;;;;;;;69.95;41.30;;;;;;;9.13;80.66;101615.44;1710671;83;21765;-59
2023/01/02 14:47:49;;;;;;;72.25;41.65;;;;;;;9.03;80.63;101618.12;1725494;82;21176;-61
2023/01/02 14:50:56;;;;;;;75.72;43.95;;;;;;;8.94;80.61;101624.41;1739856;81;21517;-61